Time;durP1;ratioP1;P1;durP2;ratioP2;P2;SDS_P1;SDS_P2;PMS_P1;PMS_P2;Temp;Humidity;BMP_temperature;BMP_pressure;BME280_temperature;BME280_humidity;BME280_pressure;Samples;Min_cycle;Max_cycle;Signal;HPM_P1;HPM_P2
2021/01/03 00:00:18;;;;;;;88.20;58.73;;;;;;;1.96;86.56;98785.31;119057;1151;65162;-82
2021/01/03 00:03:00;;;;;;;83.50;58.30;;;;;;;1.98;86.83;98786.12;119090;1150;65178;-82
2021/01/03 00:05:31;;;;;;;85.97;59.63;;;;;;;2.00;87.08;98780.80;119307;1151;65162;-82
2021/01/03 00:07:58;;;;;;;93.93;62.10;;;;;;;2.04;86.93;98784.20;119061;1150;65085;-82
2021/01/03 00:10:25;;;;;;;95.53;66.07;;;;;;;2.03;86.94;98783.34;119101;1150;65149;-81
2021/01/03 00:12:52;;;;;;;98.23;64.67;;;;;;;2.03;86.56;98775.45;119239;1149;65227;-82
2021/01/03 00:15:22;;;;;;;88.53;61.87;;;;;;;2.02;86.62;98776.35;119277;1150;65483;-82
2021/01/03 00:17:48;;;;;;;81.25;59.58;;;;;;;2.00;86.29;98770.28;119373;1150;65127;-82
2021/01/03 00:20:19;;;;;;;92.77;60.20;;;;;;;2.01;86.39;98764.14;119111;1150;65097;-82
2021/01/03 00:22:46;;;;;;;94.27;63.57;;;;;;;2.03;86.56;98762.31;118679;1150;65121;-83
2021/01/03 00:25:13;;;;;;;94.53;62.77;;;;;;;2.04;86.34;98757.91;118695;1150;65203;-83
2021/01/03 00:27:40;;;;;;;93.30;63.90;;;;;;;2.05;86.75;98763.09;118491;1150;65305;-83
2021/01/03 00:30:10;;;;;;;94.70;67.70;;;;;;;2.06;86.54;98763.98;119301;1150;65124;-82
2021/01/03 00:32:36;;;;;;;100.30;67.27;;;;;;;2.07;86.34;98763.91;118865;1150;65487;-82
2021/01/03 00:35:09;;;;;;;99.57;65.13;;;;;;;2.06;86.41;98764.83;118941;1151;65101;-84
2021/01/03 00:37:35;;;;;;;98.50;66.50;;;;;;;2.06;86.41;98767.45;119270;1151;65129;-82
2021/01/03 00:40:03;;;;;;;92.90;64.07;;;;;;;2.03;86.12;98769.31;118815;1150;65305;-84
2021/01/03 00:42:29;;;;;;;99.40;66.70;;;;;;;2.00;86.24;98767.66;119328;1150;65131;-84
2021/01/03 00:44:56;;;;;;;100.03;67.47;;;;;;;1.98;86.34;98769.51;119103;1150;65089;-83
2021/01/03 00:47:22;;;;;;;101.47;71.10;;;;;;;1.97;86.06;98766.03;119173;1150;65110;-82
2021/01/03 00:49:49;;;;;;;103.05;69.35;;;;;;;1.96;86.23;98772.17;118758;1150;65204;-82
2021/01/03 00:52:15;;;;;;;100.05;66.10;;;;;;;1.94;86.34;98773.14;118664;1150;65210;-82
2021/01/03 00:54:42;;;;;;;95.15;64.90;;;;;;;1.92;86.45;98775.84;119089;1150;65259;-83
2021/01/03 00:57:08;;;;;;;94.00;63.67;;;;;;;1.91;86.10;98768.00;119089;1150;65140;-81
2021/01/03 00:59:35;;;;;;;97.20;64.17;;;;;;;1.90;86.68;98769.78;118968;1151;65175;-82
2021/01/03 01:02:01;;;;;;;99.50;67.87;;;;;;;1.91;86.58;98760.12;119003;1150;65126;-82
2021/01/03 01:04:27;;;;;;;100.47;68.93;;;;;;;1.91;86.25;98762.75;118522;1151;65674;-82
2021/01/03 01:06:54;;;;;;;111.33;73.30;;;;;;;1.88;86.53;98768.12;119066;1150;65561;-82
2021/01/03 01:09:20;;;;;;;98.50;69.03;;;;;;;1.86;86.47;98755.02;119304;1150;65130;-82
2021/01/03 01:11:47;;;;;;;92.63;66.20;;;;;;;1.84;86.49;98750.73;119150;1151;65573;-83
2021/01/03 01:14:13;;;;;;;90.63;64.30;;;;;;;1.81;86.29;98754.32;119142;1151;65133;-85
2021/01/03 01:16:40;;;;;;;89.07;62.27;;;;;;;1.82;86.28;98749.92;118731;1149;65207;-83
2021/01/03 01:19:06;;;;;;;90.20;65.00;;;;;;;1.83;86.60;98749.03;118729;1150;65134;-83
2021/01/03 01:21:33;;;;;;;94.30;65.83;;;;;;;1.84;86.68;98751.58;118896;1150;65580;-83
2021/01/03 01:23:59;;;;;;;96.25;66.15;;;;;;;1.82;86.37;98745.55;118691;1151;65615;-82
2021/01/03 01:26:25;;;;;;;91.97;65.13;;;;;;;1.81;86.60;98741.19;119265;1151;65101;-82
2021/01/03 01:28:52;;;;;;;89.60;62.20;;;;;;;1.80;86.30;98736.00;119233;1150;65554;-82
2021/01/03 01:31:18;;;;;;;81.53;59.23;;;;;;;1.79;86.35;98739.52;118737;1151;65127;-82
2021/01/03 01:33:45;;;;;;;80.93;59.60;;;;;;;1.78;86.11;98737.82;118708;1151;65143;-82
2021/01/03 01:36:11;;;;;;;90.42;61.68;;;;;;;1.77;86.28;98729.09;118796;1150;65440;-82
2021/01/03 01:38:38;;;;;;;87.83;62.40;;;;;;;1.77;86.43;98730.86;118917;1151;65199;-82
2021/01/03 01:41:05;;;;;;;93.70;62.97;;;;;;;1.76;86.49;98735.23;119045;1151;65200;-82
2021/01/03 01:43:31;;;;;;;90.93;64.30;;;;;;;1.72;86.16;98737.13;118817;1151;65218;-81
2021/01/03 01:45:59;;;;;;;81.23;57.67;;;;;;;1.72;86.38;98728.39;118859;1151;65161;-82
2021/01/03 01:48:46;;;;;;;84.07;59.17;;;;;;;1.71;86.43;98730.17;118892;1151;65072;-84
2021/01/03 01:51:29;;;;;;;83.43;57.70;;;;;;;1.69;86.02;98724.10;118946;1151;65159;-81
2021/01/03 01:54:03;;;;;;;85.17;59.83;;;;;;;1.72;86.18;98721.36;118851;1150;65185;-82
2021/01/03 01:56:32;;;;;;;92.80;62.70;;;;;;;1.73;86.48;98720.44;119155;1151;65050;-83
2021/01/03 01:59:07;;;;;;;86.10;62.88;;;;;;;1.74;86.50;98718.69;118846;1151;65044;-82
2021/01/03 02:02:02;;;;;;;92.73;63.20;;;;;;;1.69;85.92;98718.84;118522;1151;65106;-83
2021/01/03 02:04:38;;;;;;;90.37;65.77;;;;;;;1.67;86.15;98732.95;118794;1150;65203;-83
2021/01/03 02:07:20;;;;;;;89.83;62.97;;;;;;;1.66;86.22;98731.21;118668;1151;65225;-83
2021/01/03 02:09:54;;;;;;;83.70;58.25;;;;;;;1.66;86.73;98724.22;118787;1151;65117;-83
2021/01/03 02:12:28;;;;;;;87.70;59.13;;;;;;;1.67;86.16;98719.81;118653;1151;65185;-82
2021/01/03 02:14:56;;;;;;;84.50;59.05;;;;;;;1.68;86.35;98727.62;119258;1150;65132;-82
2021/01/03 02:17:22;;;;;;;82.70;58.87;;;;;;;1.69;86.52;98718.84;119038;1151;65290;-82
2021/01/03 02:19:51;;;;;;;84.70;57.90;;;;;;;1.68;85.89;98717.11;119086;1151;65162;-83
2021/01/03 02:22:36;;;;;;;89.50;61.40;;;;;;;1.64;86.35;98712.90;119322;1150;65040;-84
2021/01/03 02:25:09;;;;;;;88.47;61.73;;;;;;;1.62;86.61;98698.95;119283;1151;65114;-82
2021/01/03 02:27:39;;;;;;;87.67;61.57;;;;;;;1.59;86.32;98687.71;119113;1148;65215;-82
2021/01/03 02:30:08;;;;;;;86.30;57.08;;;;;;;1.56;86.03;98685.20;119306;1151;65093;-82
2021/01/03 02:32:37;;;;;;;81.00;54.40;;;;;;;1.56;86.15;98683.42;119314;1151;65134;-84
2021/01/03 02:35:08;;;;;;;89.87;60.07;;;;;;;1.58;86.28;98694.74;119333;1150;65151;-83
2021/01/03 02:37:47;;;;;;;92.57;58.77;;;;;;;1.57;86.41;98679.88;119336;1150;65151;-83
2021/01/03 02:40:22;;;;;;;83.33;59.30;;;;;;;1.57;86.57;98693.00;119098;1150;65232;-84
2021/01/03 02:42:48;;;;;;;91.35;61.00;;;;;;;1.56;86.48;98693.08;119074;1151;65214;-82
2021/01/03 02:45:20;;;;;;;96.93;63.50;;;;;;;1.54;86.48;98690.49;119077;1151;65210;-81
2021/01/03 02:47:47;;;;;;;84.60;58.53;;;;;;;1.54;86.46;98687.87;119325;1150;65108;-82
2021/01/03 02:50:20;;;;;;;82.83;55.80;;;;;;;1.56;86.38;98685.20;119052;1151;65101;-82
2021/01/03 02:52:46;;;;;;;83.93;55.87;;;;;;;1.56;86.31;98683.42;119098;1151;65121;-84
2021/01/03 02:55:15;;;;;;;79.37;55.87;;;;;;;1.58;86.44;98675.47;119264;1150;65108;-82
2021/01/03 02:57:43;;;;;;;82.50;57.20;;;;;;;1.61;86.70;98675.39;119346;1150;65132;-84
2021/01/03 03:00:34;;;;;;;82.10;58.50;;;;;;;1.58;86.10;98675.47;119107;1151;65121;-84
2021/01/03 03:03:01;;;;;;;83.40;59.30;;;;;;;1.52;86.53;98669.52;119240;1150;65057;-82
2021/01/03 03:05:27;;;;;;;86.10;59.47;;;;;;;1.52;86.52;98660.80;119335;1150;65228;-83
2021/01/03 03:07:54;;;;;;;82.47;59.30;;;;;;;1.49;86.19;98656.51;118750;1151;65274;-83
2021/01/03 03:10:22;;;;;;;83.00;57.10;;;;;;;1.47;86.06;98647.82;118604;1151;65127;-83
2021/01/03 03:12:50;;;;;;;77.87;56.37;;;;;;;1.47;86.47;98641.72;118713;1151;65130;-83
2021/01/03 03:15:19;;;;;;;82.17;59.07;;;;;;;1.47;86.17;98634.69;119215;1150;65119;-82
2021/01/03 03:17:45;;;;;;;86.10;59.63;;;;;;;1.48;86.24;98641.67;119262;1151;65197;-84
2021/01/03 03:20:13;;;;;;;86.37;59.07;;;;;;;1.49;86.04;98645.16;118515;1150;65234;-83
2021/01/03 03:22:40;;;;;;;86.20;58.10;;;;;;;1.47;86.09;98639.94;118733;1150;65223;-83
2021/01/03 03:25:09;;;;;;;82.15;56.65;;;;;;;1.45;86.09;98648.78;118550;1151;65191;-82
2021/01/03 03:27:36;;;;;;;72.15;53.85;;;;;;;1.44;86.32;98652.34;119237;1150;65136;-84
2021/01/03 03:30:05;;;;;;;74.60;52.43;;;;;;;1.41;86.46;98639.33;119167;1151;65203;-83
2021/01/03 03:32:32;;;;;;;76.85;51.33;;;;;;;1.42;86.52;98636.66;119111;1150;65244;-82
2021/01/03 03:34:58;;;;;;;78.17;53.00;;;;;;;1.42;86.48;98627.90;119048;1151;65146;-82
2021/01/03 03:37:25;;;;;;;82.10;55.70;;;;;;;1.42;86.67;98626.16;119290;1150;65149;-82
2021/01/03 03:39:51;;;;;;;79.67;55.30;;;;;;;1.41;86.36;98623.57;119292;1150;65577;-82
2021/01/03 03:42:17;;;;;;;75.67;53.87;;;;;;;1.38;86.03;98624.53;119096;1151;65121;-84
2021/01/03 03:44:44;;;;;;;77.13;52.93;;;;;;;1.36;86.39;98621.10;119292;1150;65459;-82
2021/01/03 03:47:10;;;;;;;79.40;51.63;;;;;;;1.38;86.34;98626.31;119304;1151;65118;-82
2021/01/03 03:49:37;;;;;;;72.55;48.95;;;;;;;1.37;86.47;98628.08;119069;1151;65214;-83
2021/01/03 03:52:05;;;;;;;77.27;53.77;;;;;;;1.38;86.10;98621.91;119336;1150;65152;-83
2021/01/03 03:54:32;;;;;;;78.70;55.10;;;;;;;1.39;86.66;98622.77;119259;1150;65123;-82
2021/01/03 03:57:02;;;;;;;81.00;54.63;;;;;;;1.38;86.19;98614.03;119293;1150;65147;-83
2021/01/03 03:59:29;;;;;;;;;;;;;;;1.38;86.41;98614.03;119387;1150;65132;-81
2021/01/03 04:01:56;;;;;;;82.50;54.50;;;;;;;1.37;86.66;98609.70;119059;1151;65095;-82
2021/01/03 04:04:24;;;;;;;80.20;53.97;;;;;;;1.37;86.14;98601.83;119092;1151;65120;-83
2021/01/03 04:06:51;;;;;;;77.55;52.20;;;;;;;1.38;86.47;98603.53;118890;1150;65178;-82
2021/01/03 04:09:18;;;;;;;73.40;50.20;;;;;;;1.40;86.18;98609.59;118965;1151;65185;-82
2021/01/03 04:11:48;;;;;;;75.67;52.30;;;;;;;1.42;86.49;98612.14;119309;1151;65127;-82
2021/01/03 04:14:20;;;;;;;79.47;53.80;;;;;;;1.44;86.35;98605.92;119131;1151;65233;-82
2021/01/03 04:16:58;;;;;;;81.07;54.63;;;;;;;1.44;86.18;98613.80;118982;1151;65149;-82
2021/01/03 04:19:26;;;;;;;83.95;56.05;;;;;;;1.44;86.18;98610.33;119344;1151;65129;-82
2021/01/03 04:22:01;;;;;;;82.63;53.03;;;;;;;1.44;86.25;98619.05;119070;1151;65158;-83
2021/01/03 04:24:29;;;;;;;77.67;53.17;;;;;;;1.43;86.36;98621.75;119311;1151;65129;-82
2021/01/03 04:27:00;;;;;;;77.07;53.27;;;;;;;1.44;86.36;98624.30;119006;1151;65194;-82
2021/01/03 04:29:27;;;;;;;71.75;50.55;;;;;;;1.46;86.30;98619.02;119099;1150;65105;-82
2021/01/03 04:32:14;;;;;;;84.73;55.97;;;;;;;1.46;86.56;98617.23;119254;1151;65093;-81
2021/01/03 04:34:42;;;;;;;82.80;57.33;;;;;;;1.46;86.08;98600.63;119267;1150;65732;-84
2021/01/03 04:37:10;;;;;;;87.83;60.87;;;;;;;1.44;85.94;98590.17;119319;1150;65134;-82
2021/01/03 04:39:37;;;;;;;80.90;57.50;;;;;;;1.43;86.46;98584.99;119379;1151;65143;-82
2021/01/03 04:42:11;;;;;;;80.17;54.53;;;;;;;1.40;86.54;98587.73;119281;1150;65197;-82
2021/01/03 04:44:45;;;;;;;86.77;55.23;;;;;;;1.36;86.36;98583.49;119163;1150;65220;-82
2021/01/03 04:47:14;;;;;;;80.67;53.77;;;;;;;1.36;86.56;98594.84;119307;1151;65439;-83
2021/01/03 04:49:48;;;;;;;81.43;55.77;;;;;;;1.40;86.14;98609.59;119132;1151;65124;-81
2021/01/03 04:52:45;;;;;;;82.83;55.17;;;;;;;1.44;86.50;98597.20;119322;1151;65118;-84
2021/01/03 04:55:19;;;;;;;89.20;58.23;;;;;;;1.44;86.50;98587.55;119302;1151;65127;-82
2021/01/03 04:58:05;;;;;;;87.67;55.80;;;;;;;1.44;86.46;98578.81;119269;1151;65126;-82
2021/01/03 05:00:36;;;;;;;87.77;56.60;;;;;;;1.41;86.58;98574.53;119302;1151;65159;-83
2021/01/03 05:03:26;;;;;;;74.73;51.80;;;;;;;1.42;85.91;98588.52;119322;1150;65121;-82
2021/01/03 05:05:53;;;;;;;81.07;53.90;;;;;;;1.42;86.67;98599.90;119326;1151;65125;-82
2021/01/03 05:08:31;;;;;;;75.70;53.00;;;;;;;1.43;86.10;98598.13;119269;1150;65124;-82
2021/01/03 05:11:07;;;;;;;82.90;56.25;;;;;;;1.46;86.31;98603.25;119253;1151;65104;-82
2021/01/03 05:13:55;;;;;;;86.17;61.13;;;;;;;1.46;86.63;98598.01;119284;1150;65120;-84
2021/01/03 05:16:22;;;;;;;88.33;61.17;;;;;;;1.48;85.99;98581.28;119311;1151;65150;-84
2021/01/03 05:18:48;;;;;;;82.87;58.33;;;;;;;1.45;86.29;98570.02;119311;1151;65101;-82
2021/01/03 05:21:15;;;;;;;76.73;52.67;;;;;;;1.41;86.03;98560.56;119327;1150;65111;-84
2021/01/03 05:23:58;;;;;;;73.93;50.20;;;;;;;1.39;86.05;98586.86;118594;1150;65169;-82
2021/01/03 05:26:29;;;;;;;73.57;52.00;;;;;;;1.44;86.45;98597.20;119328;1150;65188;-84
2021/01/03 05:28:56;;;;;;;76.07;52.17;;;;;;;1.45;86.53;98610.28;119110;1151;65500;-80
2021/01/03 05:31:24;;;;;;;91.70;63.60;;;;;;;1.48;86.60;98628.55;119063;1151;65149;-82
2021/01/03 05:33:57;;;;;;;86.07;58.53;;;;;;;1.50;86.37;98625.84;119089;1151;65280;-83
2021/01/03 05:36:44;;;;;;;86.00;57.00;;;;;;;1.52;86.81;98613.52;119117;1151;65152;-82
2021/01/03 05:39:29;;;;;;;82.87;56.60;;;;;;;1.52;86.56;98622.25;119295;1151;65245;-82
2021/01/03 05:42:21;;;;;;;77.35;55.25;;;;;;;1.52;86.15;98619.63;119087;1151;65120;-82
2021/01/03 05:45:27;;;;;;;74.63;50.20;;;;;;;1.54;86.14;98620.44;119288;1150;65115;-82
2021/01/03 05:47:59;;;;;;;73.13;48.63;;;;;;;1.57;86.46;98611.59;119285;1151;65119;-82
2021/01/03 05:50:41;;;;;;;76.30;50.03;;;;;;;1.61;86.06;98612.36;119128;1151;65451;-82
2021/01/03 05:53:08;;;;;;;82.53;54.63;;;;;;;1.63;86.39;98613.13;118915;1150;65146;-82
2021/01/03 05:55:37;;;;;;;83.73;54.67;;;;;;;1.63;86.21;98606.10;118720;1150;65216;-82
2021/01/03 05:58:12;;;;;;;85.63;56.17;;;;;;;1.64;85.87;98610.46;118519;1151;65191;-83
2021/01/03 06:00:40;;;;;;;79.53;52.80;;;;;;;1.59;86.11;98604.52;118721;1150;65094;-82
2021/01/03 06:03:15;;;;;;;74.10;48.53;;;;;;;1.55;85.92;98592.40;119125;1151;65158;-84
2021/01/03 06:05:48;;;;;;;68.70;46.33;;;;;;;1.54;85.71;98590.70;118815;1151;65134;-82
2021/01/03 06:08:27;;;;;;;67.40;44.20;;;;;;;1.55;86.16;98574.02;119273;1150;65197;-82
2021/01/03 06:10:54;;;;;;;57.60;40.97;;;;;;;1.55;86.42;98581.89;119012;1151;65148;-82
2021/01/03 06:13:25;;;;;;;70.43;45.73;;;;;;;1.54;85.99;98570.54;119303;1150;65118;-82
2021/01/03 06:15:57;;;;;;;62.00;44.20;;;;;;;1.53;86.27;98579.34;119106;1151;65063;-84
2021/01/03 06:18:36;;;;;;;61.50;43.47;;;;;;;1.52;86.07;98568.88;119094;1151;65664;-82
2021/01/03 06:21:03;;;;;;;64.73;44.10;;;;;;;1.49;85.93;98572.48;119136;1150;65124;-83
2021/01/03 06:23:34;;;;;;;62.00;43.47;;;;;;;1.49;86.07;98572.48;118940;1150;65111;-83
2021/01/03 06:26:03;;;;;;;62.05;42.65;;;;;;;1.48;86.06;98573.41;118512;1151;65178;-82
2021/01/03 06:28:51;;;;;;;63.63;43.70;;;;;;;1.47;86.14;98570.82;119020;1150;65063;-83
2021/01/03 06:31:23;;;;;;;68.80;46.50;;;;;;;1.44;86.35;98570.94;119362;1150;65146;-81
2021/01/03 06:34:00;;;;;;;66.03;43.63;;;;;;;1.41;85.97;98545.66;119229;1150;65097;-83
2021/01/03 06:36:54;;;;;;;62.17;41.47;;;;;;;1.39;85.99;98533.50;118494;1151;65113;-83
2021/01/03 06:39:30;;;;;;;54.80;38.60;;;;;;;1.41;86.44;98527.27;119304;1150;66195;-83
2021/01/03 06:42:04;;;;;;;58.60;41.67;;;;;;;1.44;86.60;98532.41;119319;1151;65150;-82
2021/01/03 06:44:40;;;;;;;60.00;42.23;;;;;;;1.47;86.39;98537.53;119290;1150;65223;-82
2021/01/03 06:47:19;;;;;;;66.73;45.43;;;;;;;1.51;86.40;98539.15;119282;1150;65046;-82
2021/01/03 06:50:04;;;;;;;62.93;44.87;;;;;;;1.55;86.10;98558.26;119276;1150;65127;-83
2021/01/03 06:52:36;;;;;;;64.73;43.13;;;;;;;1.58;86.26;98555.55;119106;1150;65127;-82
2021/01/03 06:55:31;;;;;;;62.95;43.05;;;;;;;1.64;86.47;98557.08;119177;1151;65102;-82
2021/01/03 06:58:24;;;;;;;59.30;41.07;;;;;;;1.68;86.04;98556.88;119272;1150;65692;-82
2021/01/03 07:01:01;;;;;;;64.20;43.27;;;;;;;1.71;86.01;98548.03;119332;1151;65140;-83
2021/01/03 07:03:33;;;;;;;59.73;43.60;;;;;;;1.72;86.28;98555.86;119229;1150;65063;-82
2021/01/03 07:06:04;;;;;;;63.13;43.27;;;;;;;1.72;85.83;98549.77;118753;1150;65126;-83
2021/01/03 07:08:49;;;;;;;59.10;39.97;;;;;;;1.73;85.68;98556.72;118760;1150;65048;-82
2021/01/03 07:11:38;;;;;;;53.33;38.20;;;;;;;1.74;86.21;98555.82;119288;1151;65491;-81
2021/01/03 07:14:07;;;;;;;55.03;38.40;;;;;;;1.77;85.84;98544.34;119087;1150;65136;-82
2021/01/03 07:16:56;;;;;;;51.30;37.80;;;;;;;1.75;85.43;98545.23;119221;1151;65203;-83
2021/01/03 07:19:38;;;;;;;63.90;43.48;;;;;;;1.76;85.78;98574.98;118756;1151;65111;-83
2021/01/03 07:22:11;;;;;;;69.23;49.70;;;;;;;1.77;85.72;98547.81;119191;1151;65143;-83
2021/01/03 07:24:40;;;;;;;63.07;43.97;;;;;;;1.75;85.58;98553.11;119273;1150;65123;-85
2021/01/03 07:27:39;;;;;;;65.23;43.10;;;;;;;1.74;85.70;98564.55;118756;1150;65123;-82
2021/01/03 07:30:05;;;;;;;61.77;43.27;;;;;;;1.74;85.82;98580.31;118969;1151;65468;-83
2021/01/03 07:32:38;;;;;;;60.97;43.10;;;;;;;1.79;85.99;98587.14;119314;1150;65098;-83
2021/01/03 07:35:32;;;;;;;63.60;44.10;;;;;;;1.88;85.94;98581.55;119294;1149;65137;-83
2021/01/03 07:38:24;;;;;;;67.40;46.90;;;;;;;1.93;85.83;98574.35;119206;1151;65666;-81
2021/01/03 07:41:00;;;;;;;71.65;51.45;;;;;;;1.93;85.82;98575.20;119001;1151;65127;-82
2021/01/03 07:43:26;;;;;;;63.20;49.23;;;;;;;1.93;85.64;98585.72;118975;1150;65132;-82
2021/01/03 07:45:53;;;;;;;76.80;56.83;;;;;;;1.94;85.82;98581.31;119311;1150;65128;-83
2021/01/03 07:48:34;;;;;;;66.50;46.60;;;;;;;1.96;85.25;98576.86;119108;1150;65113;-83
2021/01/03 07:51:01;;;;;;;62.47;44.00;;;;;;;1.96;85.14;98572.45;119330;1151;65130;-83
2021/01/03 07:53:35;;;;;;;63.60;44.15;;;;;;;1.97;85.55;98562.79;119090;1151;65111;-83
2021/01/03 07:56:22;;;;;;;62.27;43.33;;;;;;;1.98;85.02;98575.88;119312;1150;65130;-83
2021/01/03 07:58:55;;;;;;;69.03;46.27;;;;;;;2.00;85.00;98588.09;119105;1151;65093;-82
2021/01/03 08:01:24;;;;;;;68.43;49.37;;;;;;;2.03;85.47;98585.34;119325;1150;65200;-82
2021/01/03 08:03:50;;;;;;;73.80;50.97;;;;;;;2.06;85.03;98577.36;119082;1151;65108;-82
2021/01/03 08:06:19;;;;;;;71.07;48.53;;;;;;;2.07;85.14;98571.18;119292;1150;65165;-82
2021/01/03 08:08:55;;;;;;;65.93;45.07;;;;;;;2.06;84.59;98572.11;119361;1150;65149;-82
2021/01/03 08:11:24;;;;;;;61.47;43.43;;;;;;;2.03;84.84;98575.71;119194;1151;65124;-82
2021/01/03 08:13:56;;;;;;;62.25;42.55;;;;;;;2.04;85.01;98566.90;119324;1150;65167;-82
2021/01/03 08:16:25;;;;;;;61.17;43.83;;;;;;;2.06;84.78;98578.22;119051;1151;65168;-82
2021/01/03 08:19:04;;;;;;;60.45;44.85;;;;;;;2.12;84.74;98569.23;119339;1151;65115;-84
2021/01/03 08:21:40;;;;;;;65.63;46.13;;;;;;;2.13;84.99;98569.18;119313;1150;65151;-83
2021/01/03 08:24:18;;;;;;;66.60;48.10;;;;;;;2.18;84.47;98584.75;119266;1151;65149;-83
2021/01/03 08:26:50;;;;;;;66.67;49.17;;;;;;;2.20;84.57;98590.80;119302;1150;65513;-83
2021/01/03 08:29:43;;;;;;;74.45;53.75;;;;;;;2.26;85.02;98592.34;119327;1150;65200;-83
2021/01/03 08:32:22;;;;;;;67.25;49.80;;;;;;;2.30;84.43;98586.05;119033;1151;65091;-82
2021/01/03 08:34:48;;;;;;;70.50;50.05;;;;;;;2.35;84.72;98595.46;119305;1150;65127;-82
2021/01/03 08:37:22;;;;;;;70.07;48.37;;;;;;;2.43;85.01;98589.05;119301;1151;65143;-82
2021/01/03 08:39:51;;;;;;;69.37;45.80;;;;;;;2.45;83.88;98592.45;119073;1151;65210;-82
2021/01/03 08:42:25;;;;;;;73.73;51.13;;;;;;;2.43;84.21;98597.78;119353;1151;65200;-82
2021/01/03 08:44:57;;;;;;;73.85;51.35;;;;;;;2.41;84.38;98596.98;119266;1151;65139;-83
2021/01/03 08:47:43;;;;;;;76.70;51.80;;;;;;;2.41;84.09;98592.58;119110;1151;65133;-83
2021/01/03 08:50:18;;;;;;;64.57;44.27;;;;;;;2.37;83.93;98596.27;119130;1151;65111;-83
2021/01/03 08:52:55;;;;;;;63.77;45.77;;;;;;;2.37;84.21;98598.02;119108;1151;65162;-82
2021/01/03 08:55:22;;;;;;;64.03;43.40;;;;;;;2.37;84.54;98595.38;119072;1151;65073;-84
2021/01/03 08:57:55;;;;;;;62.20;44.15;;;;;;;2.40;84.48;98590.87;119280;1151;65205;-82
2021/01/03 09:00:26;;;;;;;65.67;45.60;;;;;;;2.42;84.22;98606.58;119252;1150;65574;-84
2021/01/03 09:02:56;;;;;;;70.37;47.47;;;;;;;2.46;84.21;98597.66;119313;1150;65126;-82
2021/01/03 09:05:27;;;;;;;72.50;48.73;;;;;;;2.48;84.04;98602.87;119312;1150;65041;-80
2021/01/03 09:07:54;;;;;;;70.10;50.50;;;;;;;2.49;83.89;98608.05;118686;1151;65274;-81
2021/01/03 09:10:32;;;;;;;73.57;49.50;;;;;;;2.48;83.50;98602.87;118705;1151;65098;-83
2021/01/03 09:13:06;;;;;;;69.80;47.17;;;;;;;2.47;83.50;98601.98;119133;1151;65124;-83
2021/01/03 09:15:35;;;;;;;70.53;49.47;;;;;;;2.51;83.98;98605.37;119095;1151;65104;-82
2021/01/03 09:18:20;;;;;;;72.27;48.53;;;;;;;2.51;83.94;98595.70;119074;1151;65517;-82
2021/01/03 09:20:47;;;;;;;75.57;50.33;;;;;;;2.49;83.55;98600.16;118729;1150;65101;-82
2021/01/03 09:23:20;;;;;;;72.97;50.27;;;;;;;2.46;83.29;98600.29;118545;1149;65185;-82
2021/01/03 09:25:54;;;;;;;69.65;46.85;;;;;;;2.44;83.14;98594.23;118687;1150;65045;-81
2021/01/03 09:28:39;;;;;;;71.80;45.90;;;;;;;2.42;83.34;98588.16;118883;1150;65089;-83
2021/01/03 09:31:23;;;;;;;65.37;44.07;;;;;;;2.45;83.62;98592.45;118757;1151;65104;-81
2021/01/03 09:34:07;;;;;;;63.77;45.67;;;;;;;2.50;83.79;98579.97;119330;1151;65200;-84
2021/01/03 09:37:00;;;;;;;63.37;43.53;;;;;;;2.53;82.80;98577.23;119162;1151;65060;-83
2021/01/03 09:39:44;;;;;;;61.20;43.07;;;;;;;2.50;83.03;98567.70;119416;1151;65204;-83
2021/01/03 09:42:17;;;;;;;55.03;38.77;;;;;;;2.47;83.09;98570.42;119424;1150;65121;-84
2021/01/03 09:44:55;;;;;;;51.10;38.13;;;;;;;2.46;83.24;98563.47;119403;1151;65220;-83
2021/01/03 09:47:21;;;;;;;53.90;37.53;;;;;;;2.47;83.10;98565.16;119387;1150;65220;-84
2021/01/03 09:49:52;;;;;;;54.90;38.57;;;;;;;2.47;83.00;98556.42;119034;1150;65076;-84
2021/01/03 09:52:31;;;;;;;;;;;;;;;2.47;83.21;98553.80;118961;1149;65118;-84
2021/01/03 09:55:03;;;;;;;58.40;41.33;;;;;;;2.46;83.20;98566.09;119143;1150;65172;-85
2021/01/03 09:57:45;;;;;;;57.20;37.50;;;;;;;2.45;82.89;98558.25;119389;1150;65124;-85
2021/01/03 10:00:15;;;;;;;51.97;35.50;;;;;;;2.45;83.16;98572.29;119378;1151;65124;-86
2021/01/03 10:02:43;;;;;;;47.27;32.93;;;;;;;2.46;82.80;98573.98;118695;1151;65268;-85
2021/01/03 10:05:30;;;;;;;50.20;34.50;;;;;;;2.49;83.13;98573.86;119152;1151;65124;-84
2021/01/03 10:08:01;;;;;;;47.23;33.93;;;;;;;2.51;82.88;98568.55;119041;1151;65127;-83
2021/01/03 10:10:56;;;;;;;48.58;34.15;;;;;;;2.51;83.09;98565.91;119196;1151;65126;-87
2021/01/03 10:13:25;;;;;;;52.30;36.23;;;;;;;2.55;83.07;98564.86;119145;1150;65140;-85
2021/01/03 10:15:52;;;;;;;46.77;34.60;;;;;;;2.56;82.86;98567.44;118861;1151;65121;-81
2021/01/03 10:18:38;;;;;;;49.60;34.00;;;;;;;2.61;82.75;98557.58;119381;1150;65105;-81
2021/01/03 10:21:18;;;;;;;49.23;33.60;;;;;;;2.63;82.62;98557.50;119263;1150;65478;-82
2021/01/03 10:23:52;;;;;;;50.87;35.30;;;;;;;2.64;82.20;98549.55;119136;1151;65284;-83
2021/01/03 10:26:32;;;;;;;54.00;38.13;;;;;;;2.67;82.40;98545.94;118961;1150;65146;-85
2021/01/03 10:29:00;;;;;;;54.73;38.00;;;;;;;2.72;82.57;98548.38;119135;1151;65436;-87
2021/01/03 10:31:45;;;;;;;54.00;38.90;;;;;;;2.73;82.11;98543.03;118939;1151;65117;-84
2021/01/03 10:34:14;;;;;;;55.50;38.53;;;;;;;2.73;82.16;98548.30;119413;1150;65604;-80
2021/01/03 10:36:41;;;;;;;57.33;42.15;;;;;;;2.79;82.44;98544.55;119222;1151;65175;-84
2021/01/03 10:39:10;;;;;;;66.03;44.33;;;;;;;2.86;82.65;98540.74;119107;1151;65084;-82
2021/01/03 10:41:37;;;;;;;68.83;47.50;;;;;;;2.95;82.57;98537.73;119157;1151;65092;-85
2021/01/03 10:44:06;;;;;;;72.80;49.77;;;;;;;3.01;81.89;98539.23;119201;1151;65178;-84
2021/01/03 10:46:33;;;;;;;71.87;46.80;;;;;;;3.02;81.86;98541.78;119193;1151;65037;-80
2021/01/03 10:48:59;;;;;;;72.93;48.23;;;;;;;3.07;82.43;98546.86;119163;1150;65198;-84
2021/01/03 10:51:36;;;;;;;66.50;44.85;;;;;;;3.16;82.04;98554.36;119219;1151;65210;-86
2021/01/03 10:54:04;;;;;;;64.90;44.40;;;;;;;3.30;81.81;98540.58;119236;1151;65120;-86
2021/01/03 10:56:31;;;;;;;62.50;44.57;;;;;;;3.40;81.27;98547.15;118984;1151;65110;-80
2021/01/03 10:58:57;;;;;;;60.63;44.43;;;;;;;3.42;80.94;98541.80;118694;1149;65117;-81
2021/01/03 11:01:24;;;;;;;69.17;46.93;;;;;;;3.38;81.82;98533.19;118915;1151;65286;-80
2021/01/03 11:03:51;;;;;;;66.17;44.37;;;;;;;3.32;81.28;98529.95;119258;1150;65519;-80
2021/01/03 11:06:18;;;;;;;61.07;40.77;;;;;;;3.34;81.51;98530.75;119280;1150;65592;-81
2021/01/03 11:08:45;;;;;;;60.07;41.93;;;;;;;3.37;81.41;98536.76;119310;1150;65114;-80
2021/01/03 11:11:20;;;;;;;61.85;43.95;;;;;;;3.41;81.32;98532.20;119294;1151;65152;-81
2021/01/03 11:13:47;;;;;;;62.77;43.67;;;;;;;3.40;81.25;98536.61;119357;1150;65226;-80
2021/01/03 11:16:14;;;;;;;57.65;40.45;;;;;;;3.38;81.37;98529.70;119104;1151;65226;-80
2021/01/03 11:18:40;;;;;;;62.70;41.70;;;;;;;3.39;81.08;98532.25;119326;1151;65151;-81
2021/01/03 11:21:10;;;;;;;54.77;38.27;;;;;;;3.38;80.83;98527.07;119303;1150;65228;-81
2021/01/03 11:23:37;;;;;;;53.43;37.07;;;;;;;3.40;80.85;98528.71;119291;1149;65006;-81
2021/01/03 11:26:04;;;;;;;49.63;36.10;;;;;;;3.44;80.11;98522.36;119258;1150;65126;-81
2021/01/03 11:28:31;;;;;;;52.93;38.03;;;;;;;3.46;79.87;98531.05;118950;1150;65484;-81
2021/01/03 11:30:58;;;;;;;55.47;40.43;;;;;;;3.50;80.41;98524.73;118775;1151;65685;-82
2021/01/03 11:33:24;;;;;;;56.73;39.83;;;;;;;3.60;80.23;98527.78;118960;1151;65127;-81
2021/01/03 11:35:50;;;;;;;56.13;39.83;;;;;;;3.64;79.47;98524.09;118998;1150;65128;-81
2021/01/03 11:38:17;;;;;;;58.30;39.05;;;;;;;3.70;79.46;98510.62;118626;1150;65580;-82
2021/01/03 11:40:44;;;;;;;53.47;39.13;;;;;;;3.80;79.60;98518.96;119309;1150;65574;-82